Roland Park, Maryland
Current Conditions -  °F | °C
As of 12:21 AM on Sunday 26 Oct 2014 (Local Time) from KMTN Reporting Station
Clear Clear  
Wind Chill: 61°   Ceiling: Unl
Heat Index: 61°   Visibility: 10mi
Dew Point: 46°   Wind: 0mph
Humidity: 59%   Direction: NA
Pressure: 29.68"   Gusts: NA
Location:  39.3568°N, 76.6346°W
Report Text: KMTN 260421Z AUTO 00000KT 10SM CLR 16/08 A2968 RMK AO2
Loading
Personal Weather Stations






























Interactive Weather Map
Tropical Storm Tracking
New forecast layout! Learn more

10-Day Weather Forecast

Advertisements
Track Severe Weather on mobile